sensor_id;sensor_type;location;lat;lon;timestamp;temperature;humidity
9497;DHT22;4786;51.270;4.456;2023-05-27T00:00:04;13.00;99.90
9497;DHT22;4786;51.270;4.456;2023-05-27T00:02:30;12.90;99.90
9497;DHT22;4786;51.270;4.456;2023-05-27T00:04:56;12.90;99.90
9497;DHT22;4786;51.270;4.456;2023-05-27T00:07:22;12.90;99.90
9497;DHT22;4786;51.270;4.456;2023-05-27T00:09:48;12.80;99.90
9497;DHT22;4786;51.270;4.456;2023-05-27T00:12:14;12.80;99.90
9497;DHT22;4786;51.270;4.456;2023-05-27T00:14:40;12.80;99.90
9497;DHT22;4786;51.270;4.456;2023-05-27T00:17:07;12.80;99.90
9497;DHT22;4786;51.270;4.456;2023-05-27T00:19:35;12.70;99.90
9497;DHT22;4786;51.270;4.456;2023-05-27T00:22:01;12.60;99.90
9497;DHT22;4786;51.270;4.456;2023-05-27T00:24:27;12.70;99.90
9497;DHT22;4786;51.270;4.456;2023-05-27T00:26:53;12.60;99.90
9497;DHT22;4786;51.270;4.456;2023-05-27T00:29:19;12.60;99.90
9497;DHT22;4786;51.270;4.456;2023-05-27T00:31:45;12.50;99.90
9497;DHT22;4786;51.270;4.456;2023-05-27T00:34:11;12.50;99.90
9497;DHT22;4786;51.270;4.456;2023-05-27T00:36:37;12.40;99.90
9497;DHT22;4786;51.270;4.456;2023-05-27T00:39:03;12.30;99.90
9497;DHT22;4786;51.270;4.456;2023-05-27T00:41:31;12.30;99.90
9497;DHT22;4786;51.270;4.456;2023-05-27T00:43:56;12.40;99.90
9497;DHT22;4786;51.270;4.456;2023-05-27T00:46:23;12.30;99.90
9497;DHT22;4786;51.270;4.456;2023-05-27T00:48:49;12.10;99.90
9497;DHT22;4786;51.270;4.456;2023-05-27T00:51:15;12.10;99.90
9497;DHT22;4786;51.270;4.456;2023-05-27T00:53:43;12.00;99.90
9497;DHT22;4786;51.270;4.456;2023-05-27T00:56:10;12.00;99.90
9497;DHT22;4786;51.270;4.456;2023-05-27T00:58:37;12.00;99.90
9497;DHT22;4786;51.270;4.456;2023-05-27T01:01:03;12.10;99.90
9497;DHT22;4786;51.270;4.456;2023-05-27T01:03:30;12.00;99.90
9497;DHT22;4786;51.270;4.456;2023-05-27T01:06:14;12.00;99.90
9497;DHT22;4786;51.270;4.456;2023-05-27T01:09:52;12.00;99.90
9497;DHT22;4786;51.270;4.456;2023-05-27T01:11:56;11.90;99.90
9497;DHT22;4786;51.270;4.456;2023-05-27T01:14:25;11.60;99.90
9497;DHT22;4786;51.270;4.456;2023-05-27T01:16:51;11.70;99.90
9497;DHT22;4786;51.270;4.456;2023-05-27T01:19:30;11.70;99.90
9497;DHT22;4786;51.270;4.456;2023-05-27T01:21:57;11.60;99.90
9497;DHT22;4786;51.270;4.456;2023-05-27T01:24:24;11.60;99.90
9497;DHT22;4786;51.270;4.456;2023-05-27T01:26:50;11.60;99.90
9497;DHT22;4786;51.270;4.456;2023-05-27T01:29:16;11.60;99.90
9497;DHT22;4786;51.270;4.456;2023-05-27T01:32:36;11.70;99.90
9497;DHT22;4786;51.270;4.456;2023-05-27T01:37:19;11.70;99.90
9497;DHT22;4786;51.270;4.456;2023-05-27T01:39:47;11.80;99.90
9497;DHT22;4786;51.270;4.456;2023-05-27T01:42:14;11.70;99.90
9497;DHT22;4786;51.270;4.456;2023-05-27T01:44:42;11.80;99.90
9497;DHT22;4786;51.270;4.456;2023-05-27T01:47:08;11.80;99.90
9497;DHT22;4786;51.270;4.456;2023-05-27T01:49:35;11.80;99.90
9497;DHT22;4786;51.270;4.456;2023-05-27T01:52:01;11.70;99.90
9497;DHT22;4786;51.270;4.456;2023-05-27T01:54:27;11.70;99.90
9497;DHT22;4786;51.270;4.456;2023-05-27T01:56:53;11.70;99.90
9497;DHT22;4786;51.270;4.456;2023-05-27T01:59:19;11.70;99.90
9497;DHT22;4786;51.270;4.456;2023-05-27T02:01:46;11.40;99.90
9497;DHT22;4786;51.270;4.456;2023-05-27T02:04:12;11.30;99.90
9497;DHT22;4786;51.270;4.456;2023-05-27T02:06:38;11.20;99.90
9497;DHT22;4786;51.270;4.456;2023-05-27T02:09:04;11.20;99.90
9497;DHT22;4786;51.270;4.456;2023-05-27T02:11:30;11.30;99.90
9497;DHT22;4786;51.270;4.456;2023-05-27T02:13:56;11.20;99.90
9497;DHT22;4786;51.270;4.456;2023-05-27T02:16:22;11.10;99.90
9497;DHT22;4786;51.270;4.456;2023-05-27T02:18:48;11.10;99.90
9497;DHT22;4786;51.270;4.456;2023-05-27T02:21:15;11.20;99.90
9497;DHT22;4786;51.270;4.456;2023-05-27T02:23:41;11.30;99.90
9497;DHT22;4786;51.270;4.456;2023-05-27T02:26:07;10.90;99.90
9497;DHT22;4786;51.270;4.456;2023-05-27T02:28:33;10.90;99.90
9497;DHT22;4786;51.270;4.456;2023-05-27T02:31:00;11.00;99.90
9497;DHT22;4786;51.270;4.456;2023-05-27T02:33:25;10.90;99.90
9497;DHT22;4786;51.270;4.456;2023-05-27T02:35:51;11.00;99.90
9497;DHT22;4786;51.270;4.456;2023-05-27T02:38:18;11.00;99.90
9497;DHT22;4786;51.270;4.456;2023-05-27T02:40:44;11.10;99.90
9497;DHT22;4786;51.270;4.456;2023-05-27T02:43:09;10.90;99.90
9497;DHT22;4786;51.270;4.456;2023-05-27T02:45:36;10.80;99.90
9497;DHT22;4786;51.270;4.456;2023-05-27T02:48:02;10.70;99.90
9497;DHT22;4786;51.270;4.456;2023-05-27T02:50:28;10.50;99.90
9497;DHT22;4786;51.270;4.456;2023-05-27T02:52:54;10.50;99.90
9497;DHT22;4786;51.270;4.456;2023-05-27T02:55:20;10.60;99.90
9497;DHT22;4786;51.270;4.456;2023-05-27T02:57:46;10.60;99.90
9497;DHT22;4786;51.270;4.456;2023-05-27T03:00:12;10.60;99.90
9497;DHT22;4786;51.270;4.456;2023-05-27T03:02:39;10.60;99.90
9497;DHT22;4786;51.270;4.456;2023-05-27T03:05:05;10.60;99.90
9497;DHT22;4786;51.270;4.456;2023-05-27T03:07:31;10.60;99.90
9497;DHT22;4786;51.270;4.456;2023-05-27T03:09:57;10.60;99.90
9497;DHT22;4786;51.270;4.456;2023-05-27T03:12:24;10.60;99.90
9497;DHT22;4786;51.270;4.456;2023-05-27T03:14:50;10.50;99.90
9497;DHT22;4786;51.270;4.456;2023-05-27T03:17:17;10.50;99.90
9497;DHT22;4786;51.270;4.456;2023-05-27T03:19:43;10.40;99.90
9497;DHT22;4786;51.270;4.456;2023-05-27T03:22:09;10.40;99.90
9497;DHT22;4786;51.270;4.456;2023-05-27T03:24:35;10.30;99.90
9497;DHT22;4786;51.270;4.456;2023-05-27T03:27:02;10.30;99.90
9497;DHT22;4786;51.270;4.456;2023-05-27T03:29:29;10.30;99.90
9497;DHT22;4786;51.270;4.456;2023-05-27T03:31:54;10.30;99.90
9497;DHT22;4786;51.270;4.456;2023-05-27T03:34:20;10.40;99.90
9497;DHT22;4786;51.270;4.456;2023-05-27T03:36:46;10.30;99.90
9497;DHT22;4786;51.270;4.456;2023-05-27T03:39:13;10.30;99.90
9497;DHT22;4786;51.270;4.456;2023-05-27T03:41:38;10.20;99.90
9497;DHT22;4786;51.270;4.456;2023-05-27T03:44:04;10.10;99.90
9497;DHT22;4786;51.270;4.456;2023-05-27T03:46:31;10.00;99.90
9497;DHT22;4786;51.270;4.456;2023-05-27T03:48:57;10.10;99.90
9497;DHT22;4786;51.270;4.456;2023-05-27T03:51:22;10.20;99.90
9497;DHT22;4786;51.270;4.456;2023-05-27T03:53:48;10.10;99.90
9497;DHT22;4786;51.270;4.456;2023-05-27T03:56:13;10.00;99.90
9497;DHT22;4786;51.270;4.456;2023-05-27T03:58:39;10.00;99.90
9497;DHT22;4786;51.270;4.456;2023-05-27T04:01:05;9.90;99.90
9497;DHT22;4786;51.270;4.456;2023-05-27T04:03:31;10.00;99.90
9497;DHT22;4786;51.270;4.456;2023-05-27T04:05:58;10.10;99.90
9497;DHT22;4786;51.270;4.456;2023-05-27T04:08:24;10.10;99.90
9497;DHT22;4786;51.270;4.456;2023-05-27T04:10:52;10.20;99.90
9497;DHT22;4786;51.270;4.456;2023-05-27T04:13:18;10.20;99.90
9497;DHT22;4786;51.270;4.456;2023-05-27T04:15:44;10.20;99.90
9497;DHT22;4786;51.270;4.456;2023-05-27T04:18:10;10.20;99.90
9497;DHT22;4786;51.270;4.456;2023-05-27T04:20:40;10.20;99.90
9497;DHT22;4786;51.270;4.456;2023-05-27T04:23:07;10.10;99.90
9497;DHT22;4786;51.270;4.456;2023-05-27T04:25:33;10.30;99.90
9497;DHT22;4786;51.270;4.456;2023-05-27T04:28:06;10.20;99.90
9497;DHT22;4786;51.270;4.456;2023-05-27T04:30:33;10.40;99.90
9497;DHT22;4786;51.270;4.456;2023-05-27T04:32:59;10.40;99.90
9497;DHT22;4786;51.270;4.456;2023-05-27T04:35:25;10.40;99.90
9497;DHT22;4786;51.270;4.456;2023-05-27T04:37:52;10.50;99.90
9497;DHT22;4786;51.270;4.456;2023-05-27T04:40:17;10.60;99.90
9497;DHT22;4786;51.270;4.456;2023-05-27T04:42:44;10.60;99.90
9497;DHT22;4786;51.270;4.456;2023-05-27T04:45:12;10.70;99.90
9497;DHT22;4786;51.270;4.456;2023-05-27T04:47:38;10.60;99.90
9497;DHT22;4786;51.270;4.456;2023-05-27T04:50:07;10.80;99.90
9497;DHT22;4786;51.270;4.456;2023-05-27T04:52:34;10.60;99.90
9497;DHT22;4786;51.270;4.456;2023-05-27T04:55:09;10.80;99.90
9497;DHT22;4786;51.270;4.456;2023-05-27T04:57:35;10.80;99.90
9497;DHT22;4786;51.270;4.456;2023-05-27T05:00:03;10.80;99.90
9497;DHT22;4786;51.270;4.456;2023-05-27T05:02:33;11.00;99.90
9497;DHT22;4786;51.270;4.456;2023-05-27T05:05:06;11.00;99.90
9497;DHT22;4786;51.270;4.456;2023-05-27T05:07:34;11.00;99.90
9497;DHT22;4786;51.270;4.456;2023-05-27T05:10:04;11.10;99.90
9497;DHT22;4786;51.270;4.456;2023-05-27T05:12:30;11.40;99.90
9497;DHT22;4786;51.270;4.456;2023-05-27T05:14:57;12.10;99.90
9497;DHT22;4786;51.270;4.456;2023-05-27T05:17:23;13.00;99.90
9497;DHT22;4786;51.270;4.456;2023-05-27T05:19:51;14.20;99.90
9497;DHT22;4786;51.270;4.456;2023-05-27T05:22:17;15.60;99.90
9497;DHT22;4786;51.270;4.456;2023-05-27T05:24:48;16.80;99.90
9497;DHT22;4786;51.270;4.456;2023-05-27T05:27:15;17.50;99.90
9497;DHT22;4786;51.270;4.456;2023-05-27T05:29:40;18.40;99.90
9497;DHT22;4786;51.270;4.456;2023-05-27T05:32:08;18.70;99.90
9497;DHT22;4786;51.270;4.456;2023-05-27T05:34:36;19.70;99.90
9497;DHT22;4786;51.270;4.456;2023-05-27T05:37:02;20.30;99.90
9497;DHT22;4786;51.270;4.456;2023-05-27T05:39:28;21.10;99.90
9497;DHT22;4786;51.270;4.456;2023-05-27T05:41:54;21.90;99.90
9497;DHT22;4786;51.270;4.456;2023-05-27T05:44:20;22.30;99.90
9497;DHT22;4786;51.270;4.456;2023-05-27T05:46:48;23.10;99.90
9497;DHT22;4786;51.270;4.456;2023-05-27T05:49:13;22.70;98.40
9497;DHT22;4786;51.270;4.456;2023-05-27T05:51:40;22.50;97.70
9497;DHT22;4786;51.270;4.456;2023-05-27T05:54:05;22.90;97.20
9497;DHT22;4786;51.270;4.456;2023-05-27T05:56:32;23.60;97.10
9497;DHT22;4786;51.270;4.456;2023-05-27T05:58:57;24.60;95.90
9497;DHT22;4786;51.270;4.456;2023-05-27T06:01:23;24.60;94.00
9497;DHT22;4786;51.270;4.456;2023-05-27T06:03:49;25.10;92.70
9497;DHT22;4786;51.270;4.456;2023-05-27T06:06:15;25.50;91.40
9497;DHT22;4786;51.270;4.456;2023-05-27T06:08:41;25.50;90.70
9497;DHT22;4786;51.270;4.456;2023-05-27T06:11:07;25.40;90.40
9497;DHT22;4786;51.270;4.456;2023-05-27T06:13:33;25.60;90.00
9497;DHT22;4786;51.270;4.456;2023-05-27T06:15:59;24.60;87.40
9497;DHT22;4786;51.270;4.456;2023-05-27T06:18:25;24.70;89.20
9497;DHT22;4786;51.270;4.456;2023-05-27T06:20:51;25.40;89.00
9497;DHT22;4786;51.270;4.456;2023-05-27T06:23:17;25.20;87.10
9497;DHT22;4786;51.270;4.456;2023-05-27T06:25:43;25.40;87.10
9497;DHT22;4786;51.270;4.456;2023-05-27T06:28:09;25.70;85.80
9497;DHT22;4786;51.270;4.456;2023-05-27T06:30:37;26.40;83.90
9497;DHT22;4786;51.270;4.456;2023-05-27T06:33:03;26.70;81.90
9497;DHT22;4786;51.270;4.456;2023-05-27T06:35:30;27.20;83.50
9497;DHT22;4786;51.270;4.456;2023-05-27T06:37:58;27.70;80.60
9497;DHT22;4786;51.270;4.456;2023-05-27T06:40:24;27.50;76.20
9497;DHT22;4786;51.270;4.456;2023-05-27T06:42:50;27.60;77.90
9497;DHT22;4786;51.270;4.456;2023-05-27T06:45:16;27.60;77.90
9497;DHT22;4786;51.270;4.456;2023-05-27T06:47:42;28.00;77.50
9497;DHT22;4786;51.270;4.456;2023-05-27T06:50:08;28.40;74.90
9497;DHT22;4786;51.270;4.456;2023-05-27T06:52:34;28.60;73.80
9497;DHT22;4786;51.270;4.456;2023-05-27T06:55:01;28.60;72.20
9497;DHT22;4786;51.270;4.456;2023-05-27T06:57:27;28.20;73.10
9497;DHT22;4786;51.270;4.456;2023-05-27T06:59:55;28.30;72.30
9497;DHT22;4786;51.270;4.456;2023-05-27T07:02:21;27.90;71.80
9497;DHT22;4786;51.270;4.456;2023-05-27T07:04:46;27.40;73.70
9497;DHT22;4786;51.270;4.456;2023-05-27T07:07:12;27.50;74.10
9497;DHT22;4786;51.270;4.456;2023-05-27T07:09:38;27.70;73.80
9497;DHT22;4786;51.270;4.456;2023-05-27T07:12:05;28.00;72.90
9497;DHT22;4786;51.270;4.456;2023-05-27T07:14:32;28.10;74.20
9497;DHT22;4786;51.270;4.456;2023-05-27T07:16:58;27.90;72.70
9497;DHT22;4786;51.270;4.456;2023-05-27T07:19:23;27.70;75.10
9497;DHT22;4786;51.270;4.456;2023-05-27T07:21:50;27.70;74.90
9497;DHT22;4786;51.270;4.456;2023-05-27T07:24:15;27.30;73.70
9497;DHT22;4786;51.270;4.456;2023-05-27T07:26:41;26.70;75.30
9497;DHT22;4786;51.270;4.456;2023-05-27T07:29:08;26.30;76.50
9497;DHT22;4786;51.270;4.456;2023-05-27T07:31:35;25.80;76.80
9497;DHT22;4786;51.270;4.456;2023-05-27T07:34:00;25.10;78.20
9497;DHT22;4786;51.270;4.456;2023-05-27T07:36:26;24.50;80.00
9497;DHT22;4786;51.270;4.456;2023-05-27T07:38:52;23.90;83.50
9497;DHT22;4786;51.270;4.456;2023-05-27T07:41:18;23.60;83.60
9497;DHT22;4786;51.270;4.456;2023-05-27T07:43:44;23.20;86.50
9497;DHT22;4786;51.270;4.456;2023-05-27T07:46:10;23.00;87.40
9497;DHT22;4786;51.270;4.456;2023-05-27T07:48:36;22.80;87.30
9497;DHT22;4786;51.270;4.456;2023-05-27T07:51:02;22.40;90.60
9497;DHT22;4786;51.270;4.456;2023-05-27T07:53:29;22.40;90.70
9497;DHT22;4786;51.270;4.456;2023-05-27T07:55:54;22.30;90.40
9497;DHT22;4786;51.270;4.456;2023-05-27T07:58:21;21.80;91.10
9497;DHT22;4786;51.270;4.456;2023-05-27T08:00:46;21.80;91.80
9497;DHT22;4786;51.270;4.456;2023-05-27T08:03:12;21.40;92.70
9497;DHT22;4786;51.270;4.456;2023-05-27T08:05:39;21.40;92.70
9497;DHT22;4786;51.270;4.456;2023-05-27T08:08:05;21.50;93.00
9497;DHT22;4786;51.270;4.456;2023-05-27T08:10:31;21.70;93.80
9497;DHT22;4786;51.270;4.456;2023-05-27T08:12:56;21.80;94.40
9497;DHT22;4786;51.270;4.456;2023-05-27T08:15:22;21.80;93.80
9497;DHT22;4786;51.270;4.456;2023-05-27T08:17:48;21.80;93.00
9497;DHT22;4786;51.270;4.456;2023-05-27T08:20:15;21.20;93.30
9497;DHT22;4786;51.270;4.456;2023-05-27T08:22:41;21.10;94.60
9497;DHT22;4786;51.270;4.456;2023-05-27T08:25:07;21.30;95.50
9497;DHT22;4786;51.270;4.456;2023-05-27T08:27:50;21.60;95.00
9497;DHT22;4786;51.270;4.456;2023-05-27T08:30:16;21.70;94.90
9497;DHT22;4786;51.270;4.456;2023-05-27T08:32:43;21.90;95.80
9497;DHT22;4786;51.270;4.456;2023-05-27T08:35:10;22.10;94.50
9497;DHT22;4786;51.270;4.456;2023-05-27T08:37:39;22.10;94.70
9497;DHT22;4786;51.270;4.456;2023-05-27T08:40:10;22.30;94.10
9497;DHT22;4786;51.270;4.456;2023-05-27T08:42:37;22.00;94.60
9497;DHT22;4786;51.270;4.456;2023-05-27T08:45:03;22.20;94.50
9497;DHT22;4786;51.270;4.456;2023-05-27T08:47:30;22.40;94.40
9497;DHT22;4786;51.270;4.456;2023-05-27T08:49:58;22.60;95.10
9497;DHT22;4786;51.270;4.456;2023-05-27T08:52:27;22.60;94.90
9497;DHT22;4786;51.270;4.456;2023-05-27T08:54:58;22.30;94.40
9497;DHT22;4786;51.270;4.456;2023-05-27T08:57:28;22.10;94.10
9497;DHT22;4786;51.270;4.456;2023-05-27T08:59:55;22.10;94.80
9497;DHT22;4786;51.270;4.456;2023-05-27T09:02:21;21.60;94.80
9497;DHT22;4786;51.270;4.456;2023-05-27T09:04:48;21.30;95.70
9497;DHT22;4786;51.270;4.456;2023-05-27T09:07:14;21.40;96.50
9497;DHT22;4786;51.270;4.456;2023-05-27T09:09:40;21.50;95.80
9497;DHT22;4786;51.270;4.456;2023-05-27T09:12:07;21.80;97.10
9497;DHT22;4786;51.270;4.456;2023-05-27T09:14:36;22.00;97.40
9497;DHT22;4786;51.270;4.456;2023-05-27T09:17:08;22.20;95.90
9497;DHT22;4786;51.270;4.456;2023-05-27T09:19:34;22.20;94.90
9497;DHT22;4786;51.270;4.456;2023-05-27T09:22:00;22.40;95.60
9497;DHT22;4786;51.270;4.456;2023-05-27T09:24:27;22.50;95.30
9497;DHT22;4786;51.270;4.456;2023-05-27T09:26:54;22.60;94.60
9497;DHT22;4786;51.270;4.456;2023-05-27T09:29:23;22.60;95.10
9497;DHT22;4786;51.270;4.456;2023-05-27T09:31:53;22.50;96.50
9497;DHT22;4786;51.270;4.456;2023-05-27T09:34:20;22.70;95.40
9497;DHT22;4786;51.270;4.456;2023-05-27T09:36:48;22.80;96.30
9497;DHT22;4786;51.270;4.456;2023-05-27T09:39:15;23.20;96.10
9497;DHT22;4786;51.270;4.456;2023-05-27T09:41:42;23.50;95.30
9497;DHT22;4786;51.270;4.456;2023-05-27T09:44:09;23.60;94.60
9497;DHT22;4786;51.270;4.456;2023-05-27T09:46:35;23.80;94.00
9497;DHT22;4786;51.270;4.456;2023-05-27T09:49:02;23.80;93.30
9497;DHT22;4786;51.270;4.456;2023-05-27T09:51:32;23.90;94.40
9497;DHT22;4786;51.270;4.456;2023-05-27T09:53:59;23.70;93.10
9497;DHT22;4786;51.270;4.456;2023-05-27T09:56:26;23.80;92.70
9497;DHT22;4786;51.270;4.456;2023-05-27T09:58:56;23.60;93.00
9497;DHT22;4786;51.270;4.456;2023-05-27T10:01:28;23.90;95.20
9497;DHT22;4786;51.270;4.456;2023-05-27T10:03:55;24.30;93.30
9497;DHT22;4786;51.270;4.456;2023-05-27T10:06:25;24.50;94.40
9497;DHT22;4786;51.270;4.456;2023-05-27T10:08:55;24.80;92.80
9497;DHT22;4786;51.270;4.456;2023-05-27T10:11:24;24.80;91.90
9497;DHT22;4786;51.270;4.456;2023-05-27T10:13:51;25.00;93.40
9497;DHT22;4786;51.270;4.456;2023-05-27T10:16:26;25.10;92.30
9497;DHT22;4786;51.270;4.456;2023-05-27T10:18:54;25.00;94.00
9497;DHT22;4786;51.270;4.456;2023-05-27T10:21:21;25.10;92.90
9497;DHT22;4786;51.270;4.456;2023-05-27T10:24:02;25.10;92.50
9497;DHT22;4786;51.270;4.456;2023-05-27T10:26:39;25.10;91.10
9497;DHT22;4786;51.270;4.456;2023-05-27T10:29:16;25.10;90.90
9497;DHT22;4786;51.270;4.456;2023-05-27T10:32:02;25.00;90.20
9497;DHT22;4786;51.270;4.456;2023-05-27T10:34:41;25.20;91.90
9497;DHT22;4786;51.270;4.456;2023-05-27T10:37:07;25.10;90.20
9497;DHT22;4786;51.270;4.456;2023-05-27T10:39:33;25.10;92.60
9497;DHT22;4786;51.270;4.456;2023-05-27T10:41:59;25.10;91.00
9497;DHT22;4786;51.270;4.456;2023-05-27T10:44:29;25.20;90.70
9497;DHT22;4786;51.270;4.456;2023-05-27T10:47:09;25.20;91.20
9497;DHT22;4786;51.270;4.456;2023-05-27T10:49:38;25.30;92.50
9497;DHT22;4786;51.270;4.456;2023-05-27T10:54:36;25.50;90.30
9497;DHT22;4786;51.270;4.456;2023-05-27T10:57:02;25.30;88.50
9497;DHT22;4786;51.270;4.456;2023-05-27T10:59:50;25.40;90.10
9497;DHT22;4786;51.270;4.456;2023-05-27T11:02:17;25.60;92.40
9497;DHT22;4786;51.270;4.456;2023-05-27T11:04:43;25.70;91.00
9497;DHT22;4786;51.270;4.456;2023-05-27T11:07:09;25.80;88.70
9497;DHT22;4786;51.270;4.456;2023-05-27T11:09:45;25.60;87.30
9497;DHT22;4786;51.270;4.456;2023-05-27T11:12:16;25.50;90.00
9497;DHT22;4786;51.270;4.456;2023-05-27T11:14:46;25.60;90.70
9497;DHT22;4786;51.270;4.456;2023-05-27T11:17:12;25.70;87.50
9497;DHT22;4786;51.270;4.456;2023-05-27T11:19:39;25.70;88.20
9497;DHT22;4786;51.270;4.456;2023-05-27T11:22:09;25.80;87.40
9497;DHT22;4786;51.270;4.456;2023-05-27T11:24:36;25.70;87.00
9497;DHT22;4786;51.270;4.456;2023-05-27T11:27:12;25.50;88.70
9497;DHT22;4786;51.270;4.456;2023-05-27T11:29:39;25.30;85.40
9497;DHT22;4786;51.270;4.456;2023-05-27T11:32:06;25.40;87.00
9497;DHT22;4786;51.270;4.456;2023-05-27T11:34:36;25.50;84.60
9497;DHT22;4786;51.270;4.456;2023-05-27T11:37:03;25.60;85.10
9497;DHT22;4786;51.270;4.456;2023-05-27T11:39:32;25.50;85.00
9497;DHT22;4786;51.270;4.456;2023-05-27T11:41:58;25.30;86.30
9497;DHT22;4786;51.270;4.456;2023-05-27T11:44:25;25.40;85.30
9497;DHT22;4786;51.270;4.456;2023-05-27T11:46:57;25.60;86.50
9497;DHT22;4786;51.270;4.456;2023-05-27T11:49:23;25.60;85.40
9497;DHT22;4786;51.270;4.456;2023-05-27T11:51:50;25.30;83.20
9497;DHT22;4786;51.270;4.456;2023-05-27T11:54:27;25.10;83.90
9497;DHT22;4786;51.270;4.456;2023-05-27T11:56:55;25.00;81.40
9497;DHT22;4786;51.270;4.456;2023-05-27T11:59:22;25.20;84.50
9497;DHT22;4786;51.270;4.456;2023-05-27T12:01:49;25.20;83.50
9497;DHT22;4786;51.270;4.456;2023-05-27T12:04:15;25.40;83.10
9497;DHT22;4786;51.270;4.456;2023-05-27T12:06:43;25.50;82.70
9497;DHT22;4786;51.270;4.456;2023-05-27T12:09:10;25.40;81.60
9497;DHT22;4786;51.270;4.456;2023-05-27T12:11:37;25.40;80.00
9497;DHT22;4786;51.270;4.456;2023-05-27T12:14:04;25.50;83.30
9497;DHT22;4786;51.270;4.456;2023-05-27T12:16:31;25.80;85.40
9497;DHT22;4786;51.270;4.456;2023-05-27T12:18:58;25.70;78.60
9497;DHT22;4786;51.270;4.456;2023-05-27T12:21:24;25.50;79.50
9497;DHT22;4786;51.270;4.456;2023-05-27T12:23:51;25.60;79.80
9497;DHT22;4786;51.270;4.456;2023-05-27T12:26:17;25.70;81.30
9497;DHT22;4786;51.270;4.456;2023-05-27T12:28:43;25.90;80.60
9497;DHT22;4786;51.270;4.456;2023-05-27T12:31:10;26.10;78.10
9497;DHT22;4786;51.270;4.456;2023-05-27T12:33:36;26.20;79.30
9497;DHT22;4786;51.270;4.456;2023-05-27T12:36:02;26.10;77.30
9497;DHT22;4786;51.270;4.456;2023-05-27T12:38:30;26.30;81.40
9497;DHT22;4786;51.270;4.456;2023-05-27T12:40:57;26.10;75.20
9497;DHT22;4786;51.270;4.456;2023-05-27T12:43:24;25.80;76.80
9497;DHT22;4786;51.270;4.456;2023-05-27T12:45:49;25.80;79.20
9497;DHT22;4786;51.270;4.456;2023-05-27T12:48:16;26.00;79.30
9497;DHT22;4786;51.270;4.456;2023-05-27T12:50:43;26.10;78.90
9497;DHT22;4786;51.270;4.456;2023-05-27T12:53:09;26.20;77.30
9497;DHT22;4786;51.270;4.456;2023-05-27T12:55:35;26.20;74.70
9497;DHT22;4786;51.270;4.456;2023-05-27T12:58:01;26.40;79.10
9497;DHT22;4786;51.270;4.456;2023-05-27T13:00:28;26.40;73.50
9497;DHT22;4786;51.270;4.456;2023-05-27T13:02:54;26.50;74.00
9497;DHT22;4786;51.270;4.456;2023-05-27T13:05:20;26.40;72.90
9497;DHT22;4786;51.270;4.456;2023-05-27T13:07:57;26.30;77.60
9497;DHT22;4786;51.270;4.456;2023-05-27T13:10:23;26.30;74.10
9497;DHT22;4786;51.270;4.456;2023-05-27T13:12:50;26.40;73.20
9497;DHT22;4786;51.270;4.456;2023-05-27T13:15:16;26.30;74.10
9497;DHT22;4786;51.270;4.456;2023-05-27T13:17:43;26.00;73.90
9497;DHT22;4786;51.270;4.456;2023-05-27T13:20:09;26.10;75.30
9497;DHT22;4786;51.270;4.456;2023-05-27T13:22:35;26.10;73.20
9497;DHT22;4786;51.270;4.456;2023-05-27T13:25:01;26.20;78.90
9497;DHT22;4786;51.270;4.456;2023-05-27T13:27:27;26.30;75.30
9497;DHT22;4786;51.270;4.456;2023-05-27T13:29:53;26.40;74.90
9497;DHT22;4786;51.270;4.456;2023-05-27T13:32:19;26.50;73.90
9497;DHT22;4786;51.270;4.456;2023-05-27T13:34:45;26.60;76.80
9497;DHT22;4786;51.270;4.456;2023-05-27T13:37:11;26.60;72.70
9497;DHT22;4786;51.270;4.456;2023-05-27T13:39:37;26.60;69.20
9497;DHT22;4786;51.270;4.456;2023-05-27T13:42:08;26.60;69.00
9497;DHT22;4786;51.270;4.456;2023-05-27T13:44:34;26.50;69.20
9497;DHT22;4786;51.270;4.456;2023-05-27T13:47:00;26.40;70.80
9497;DHT22;4786;51.270;4.456;2023-05-27T13:49:26;26.20;70.50
9497;DHT22;4786;51.270;4.456;2023-05-27T13:51:51;26.10;71.40
9497;DHT22;4786;51.270;4.456;2023-05-27T13:54:17;26.10;74.00
9497;DHT22;4786;51.270;4.456;2023-05-27T13:56:43;26.10;75.80
9497;DHT22;4786;51.270;4.456;2023-05-27T13:59:09;26.20;72.40
9497;DHT22;4786;51.270;4.456;2023-05-27T14:01:35;26.20;71.70
9497;DHT22;4786;51.270;4.456;2023-05-27T14:04:02;26.30;69.80
9497;DHT22;4786;51.270;4.456;2023-05-27T14:06:28;26.30;72.70
9497;DHT22;4786;51.270;4.456;2023-05-27T14:08:54;26.30;68.10
9497;DHT22;4786;51.270;4.456;2023-05-27T14:11:20;26.20;68.70
9497;DHT22;4786;51.270;4.456;2023-05-27T14:13:47;26.10;69.50
9497;DHT22;4786;51.270;4.456;2023-05-27T14:16:14;26.00;67.80
9497;DHT22;4786;51.270;4.456;2023-05-27T14:18:40;25.80;66.80
9497;DHT22;4786;51.270;4.456;2023-05-27T14:21:06;25.80;69.10
9497;DHT22;4786;51.270;4.456;2023-05-27T14:23:33;25.80;70.70
9497;DHT22;4786;51.270;4.456;2023-05-27T14:25:59;25.70;68.00
9497;DHT22;4786;51.270;4.456;2023-05-27T14:28:25;25.50;68.90
9497;DHT22;4786;51.270;4.456;2023-05-27T14:30:52;25.90;71.20
9497;DHT22;4786;51.270;4.456;2023-05-27T14:33:18;25.80;73.00
9497;DHT22;4786;51.270;4.456;2023-05-27T14:35:44;25.90;71.40
9497;DHT22;4786;51.270;4.456;2023-05-27T14:38:11;26.00;70.10
9497;DHT22;4786;51.270;4.456;2023-05-27T14:40:38;26.20;69.60
9497;DHT22;4786;51.270;4.456;2023-05-27T14:43:04;26.10;70.60
9497;DHT22;4786;51.270;4.456;2023-05-27T14:45:32;25.90;69.70
9497;DHT22;4786;51.270;4.456;2023-05-27T14:47:58;25.70;69.90
9497;DHT22;4786;51.270;4.456;2023-05-27T14:50:24;25.30;69.20
9497;DHT22;4786;51.270;4.456;2023-05-27T14:52:52;25.30;70.90
9497;DHT22;4786;51.270;4.456;2023-05-27T14:55:19;25.30;71.40
9497;DHT22;4786;51.270;4.456;2023-05-27T14:57:45;25.40;72.30
9497;DHT22;4786;51.270;4.456;2023-05-27T15:00:12;25.50;74.90
9497;DHT22;4786;51.270;4.456;2023-05-27T15:02:38;25.50;74.50
9497;DHT22;4786;51.270;4.456;2023-05-27T15:05:05;25.50;73.60
9497;DHT22;4786;51.270;4.456;2023-05-27T15:07:32;25.60;78.10
9497;DHT22;4786;51.270;4.456;2023-05-27T15:09:59;25.60;74.20
9497;DHT22;4786;51.270;4.456;2023-05-27T15:12:27;25.70;72.90
9497;DHT22;4786;51.270;4.456;2023-05-27T15:14:53;25.80;76.40
9497;DHT22;4786;51.270;4.456;2023-05-27T15:17:20;25.60;74.20
9497;DHT22;4786;51.270;4.456;2023-05-27T15:19:46;25.60;72.90
9497;DHT22;4786;51.270;4.456;2023-05-27T15:22:12;25.80;74.90
9497;DHT22;4786;51.270;4.456;2023-05-27T15:24:38;25.50;72.70
9497;DHT22;4786;51.270;4.456;2023-05-27T15:27:04;25.60;74.90
9497;DHT22;4786;51.270;4.456;2023-05-27T15:29:31;25.60;73.20
9497;DHT22;4786;51.270;4.456;2023-05-27T15:31:57;25.80;74.50
9497;DHT22;4786;51.270;4.456;2023-05-27T15:34:23;25.90;72.10
9497;DHT22;4786;51.270;4.456;2023-05-27T15:36:49;26.00;73.80
9497;DHT22;4786;51.270;4.456;2023-05-27T15:39:15;26.10;71.30
9497;DHT22;4786;51.270;4.456;2023-05-27T15:41:41;26.00;70.10
9497;DHT22;4786;51.270;4.456;2023-05-27T15:44:07;26.00;70.90
9497;DHT22;4786;51.270;4.456;2023-05-27T15:46:33;25.80;68.40
9497;DHT22;4786;51.270;4.456;2023-05-27T15:48:59;25.80;69.50
9497;DHT22;4786;51.270;4.456;2023-05-27T15:51:25;25.60;69.60
9497;DHT22;4786;51.270;4.456;2023-05-27T15:53:51;25.60;71.70
9497;DHT22;4786;51.270;4.456;2023-05-27T15:56:17;25.60;70.20
9497;DHT22;4786;51.270;4.456;2023-05-27T15:58:42;25.60;71.10
9497;DHT22;4786;51.270;4.456;2023-05-27T16:01:09;25.70;72.00
9497;DHT22;4786;51.270;4.456;2023-05-27T16:03:34;25.70;70.60
9497;DHT22;4786;51.270;4.456;2023-05-27T16:06:00;25.60;71.10